sensor_id;sensor_type;location;lat;lon;timestamp;pressure;altitude;pressure_sealevel;temperature;humidity
5126;BME280;63008;53.112;8.896;2022-11-20T00:01:52;101295.53;;;1.76;83.57
5126;BME280;63008;53.112;8.896;2022-11-20T00:03:55;101295.84;;;1.79;83.80
5126;BME280;63008;53.112;8.896;2022-11-20T00:06:04;101287.19;;;1.87;84.04
5126;BME280;63008;53.112;8.896;2022-11-20T00:08:05;101289.66;;;1.89;83.56
5126;BME280;63008;53.112;8.896;2022-11-20T00:10:07;101291.53;;;1.83;83.40
5126;BME280;63008;53.112;8.896;2022-11-20T00:12:08;101285.81;;;1.80;83.90
5126;BME280;63008;53.112;8.896;2022-11-20T00:14:12;101288.31;;;1.91;83.85
5126;BME280;63008;53.112;8.896;2022-11-20T00:16:15;101298.03;;;1.92;83.58
5126;BME280;63008;53.112;8.896;2022-11-20T00:18:17;101286.66;;;1.85;84.15
5126;BME280;63008;53.112;8.896;2022-11-20T00:20:17;101285.88;;;1.90;83.85
5126;BME280;63008;53.112;8.896;2022-11-20T00:22:19;101285.34;;;1.98;83.69
5126;BME280;63008;53.112;8.896;2022-11-20T00:24:20;101283.72;;;1.97;83.65
5126;BME280;63008;53.112;8.896;2022-11-20T00:26:22;101279.41;;;2.01;84.75
5126;BME280;63008;53.112;8.896;2022-11-20T00:28:23;101289.97;;;2.02;83.85
5126;BME280;63008;53.112;8.896;2022-11-20T00:30:24;101278.38;;;2.07;84.00
5126;BME280;63008;53.112;8.896;2022-11-20T00:32:25;101281.63;;;2.04;83.72
5126;BME280;63008;53.112;8.896;2022-11-20T00:34:26;101282.41;;;2.09;84.36
5126;BME280;63008;53.112;8.896;2022-11-20T00:36:28;101280.00;;;2.13;83.66
5126;BME280;63008;53.112;8.896;2022-11-20T00:38:33;101276.50;;;2.12;83.66
5126;BME280;63008;53.112;8.896;2022-11-20T00:40:34;101278.13;;;2.13;83.43
5126;BME280;63008;53.112;8.896;2022-11-20T00:42:35;101282.47;;;2.14;83.50
5126;BME280;63008;53.112;8.896;2022-11-20T00:44:36;101280.53;;;2.10;83.59
5126;BME280;63008;53.112;8.896;2022-11-20T00:46:37;101280.00;;;2.08;83.88
5126;BME280;63008;53.112;8.896;2022-11-20T00:48:38;101278.94;;;2.14;83.57
5126;BME280;63008;53.112;8.896;2022-11-20T00:50:40;101274.34;;;2.14;83.41
5126;BME280;63008;53.112;8.896;2022-11-20T00:52:42;101282.16;;;2.11;83.63
5126;BME280;63008;53.112;8.896;2022-11-20T00:54:43;101272.19;;;2.11;83.66
5126;BME280;63008;53.112;8.896;2022-11-20T00:56:43;101271.09;;;2.12;83.69
5126;BME280;63008;53.112;8.896;2022-11-20T00:58:47;101265.94;;;2.11;83.70
5126;BME280;63008;53.112;8.896;2022-11-20T01:00:48;101269.16;;;2.03;84.61
5126;BME280;63008;53.112;8.896;2022-11-20T01:02:50;101268.88;;;1.99;84.66
5126;BME280;63008;53.112;8.896;2022-11-20T01:04:51;101265.56;;;1.87;85.21
5126;BME280;63008;53.112;8.896;2022-11-20T01:06:52;101271.53;;;1.89;85.39
5126;BME280;63008;53.112;8.896;2022-11-20T01:08:56;101273.69;;;1.87;85.34
5126;BME280;63008;53.112;8.896;2022-11-20T01:11:01;101262.31;;;1.90;85.61
5126;BME280;63008;53.112;8.896;2022-11-20T01:13:02;101257.75;;;1.96;85.73
5126;BME280;63008;53.112;8.896;2022-11-20T01:15:22;101260.75;;;1.94;85.75
5126;BME280;63008;53.112;8.896;2022-11-20T01:17:23;101262.84;;;1.87;86.38
5126;BME280;63008;53.112;8.896;2022-11-20T01:19:24;101260.47;;;1.96;85.92
5126;BME280;63008;53.112;8.896;2022-11-20T01:21:31;101265.88;;;1.96;86.03
5126;BME280;63008;53.112;8.896;2022-11-20T01:23:34;101257.44;;;1.87;86.25
5126;BME280;63008;53.112;8.896;2022-11-20T01:25:36;101262.00;;;1.82;86.58
5126;BME280;63008;53.112;8.896;2022-11-20T01:27:37;101251.75;;;1.84;86.95
5126;BME280;63008;53.112;8.896;2022-11-20T01:29:38;101251.72;;;1.79;87.16
5126;BME280;63008;53.112;8.896;2022-11-20T01:31:39;101252.56;;;1.84;87.31
5126;BME280;63008;53.112;8.896;2022-11-20T01:33:40;101250.94;;;1.83;87.07
5126;BME280;63008;53.112;8.896;2022-11-20T01:35:41;101250.13;;;1.83;87.25
5126;BME280;63008;53.112;8.896;2022-11-20T01:37:42;101241.19;;;1.77;87.82
5126;BME280;63008;53.112;8.896;2022-11-20T01:39:43;101241.47;;;1.81;87.47
5126;BME280;63008;53.112;8.896;2022-11-20T01:41:45;101231.75;;;1.85;87.32
5126;BME280;63008;53.112;8.896;2022-11-20T01:44:05;101229.06;;;1.90;87.25
5126;BME280;63008;53.112;8.896;2022-11-20T01:46:15;101232.03;;;1.93;86.86
5126;BME280;63008;53.112;8.896;2022-11-20T01:48:19;101226.34;;;1.85;87.00
5126;BME280;63008;53.112;8.896;2022-11-20T01:50:24;101231.22;;;1.93;86.80
5126;BME280;63008;53.112;8.896;2022-11-20T01:52:41;101228.81;;;1.96;86.82
5126;BME280;63008;53.112;8.896;2022-11-20T01:54:50;101233.16;;;1.97;86.15
5126;BME280;63008;53.112;8.896;2022-11-20T01:56:55;101234.47;;;1.95;86.06
5126;BME280;63008;53.112;8.896;2022-11-20T01:58:59;101227.19;;;2.00;85.81
5126;BME280;63008;53.112;8.896;2022-11-20T02:01:03;101219.56;;;1.87;85.68
5126;BME280;63008;53.112;8.896;2022-11-20T02:03:12;101222.25;;;1.77;86.00
5126;BME280;63008;53.112;8.896;2022-11-20T02:05:35;101212.53;;;1.77;86.36
5126;BME280;63008;53.112;8.896;2022-11-20T02:07:37;101213.31;;;1.82;85.82
5126;BME280;63008;53.112;8.896;2022-11-20T02:09:38;101218.25;;;1.90;85.39
5126;BME280;63008;53.112;8.896;2022-11-20T02:11:39;101210.38;;;1.88;84.96
5126;BME280;63008;53.112;8.896;2022-11-20T02:13:41;101215.78;;;1.93;84.91
5126;BME280;63008;53.112;8.896;2022-11-20T02:15:46;101209.03;;;1.91;84.64
5126;BME280;63008;53.112;8.896;2022-11-20T02:17:48;101207.16;;;1.96;84.55
5126;BME280;63008;53.112;8.896;2022-11-20T02:19:49;101204.41;;;1.86;84.52
5126;BME280;63008;53.112;8.896;2022-11-20T02:26:06;101196.84;;;1.88;84.48
5126;BME280;63008;53.112;8.896;2022-11-20T02:28:09;101193.59;;;1.86;84.41
5126;BME280;63008;53.112;8.896;2022-11-20T02:30:11;101197.09;;;1.82;83.89
5126;BME280;63008;53.112;8.896;2022-11-20T02:32:20;101199.78;;;1.77;83.95
5126;BME280;63008;53.112;8.896;2022-11-20T02:34:21;101192.75;;;1.81;84.39
5126;BME280;63008;53.112;8.896;2022-11-20T02:36:24;101207.13;;;1.81;84.40
5126;BME280;63008;53.112;8.896;2022-11-20T02:38:26;101201.66;;;1.72;84.25
5126;BME280;63008;53.112;8.896;2022-11-20T02:40:28;101208.97;;;1.76;83.86
5126;BME280;63008;53.112;8.896;2022-11-20T02:42:29;101199.78;;;1.77;84.04
5126;BME280;63008;53.112;8.896;2022-11-20T02:44:30;101202.72;;;1.71;83.78
5126;BME280;63008;53.112;8.896;2022-11-20T02:46:32;101197.34;;;1.75;83.80
5126;BME280;63008;53.112;8.896;2022-11-20T02:48:33;101200.34;;;1.79;83.68
5126;BME280;63008;53.112;8.896;2022-11-20T02:50:38;101200.34;;;1.79;83.88
5126;BME280;63008;53.112;8.896;2022-11-20T02:52:41;101202.50;;;1.82;83.94
5126;BME280;63008;53.112;8.896;2022-11-20T02:54:41;101206.59;;;1.84;83.75
5126;BME280;63008;53.112;8.896;2022-11-20T02:56:43;101193.84;;;1.75;83.36
5126;BME280;63008;53.112;8.896;2022-11-20T02:58:44;101194.06;;;1.69;83.51
5126;BME280;63008;53.112;8.896;2022-11-20T03:00:45;101194.06;;;1.69;83.81
5126;BME280;63008;53.112;8.896;2022-11-20T03:02:46;101193.00;;;1.65;83.81
5126;BME280;63008;53.112;8.896;2022-11-20T03:04:47;101185.16;;;1.68;83.83
5126;BME280;63008;53.112;8.896;2022-11-20T03:06:47;101182.41;;;1.58;84.05
5126;BME280;63008;53.112;8.896;2022-11-20T03:08:48;101187.00;;;1.58;83.92
5126;BME280;63008;53.112;8.896;2022-11-20T03:10:49;101181.63;;;1.68;84.20
5126;BME280;63008;53.112;8.896;2022-11-20T03:12:54;101181.09;;;1.75;83.85
5126;BME280;63008;53.112;8.896;2022-11-20T03:14:58;101180.84;;;1.77;83.63
5126;BME280;63008;53.112;8.896;2022-11-20T03:16:59;101174.38;;;1.78;83.71
5126;BME280;63008;53.112;8.896;2022-11-20T03:19:00;101172.75;;;1.82;83.50
5126;BME280;63008;53.112;8.896;2022-11-20T03:21:01;101176.28;;;1.77;83.61
5126;BME280;63008;53.112;8.896;2022-11-20T03:23:02;101179.53;;;1.79;83.25
5126;BME280;63008;53.112;8.896;2022-11-20T03:25:04;101169.25;;;1.86;82.59
5126;BME280;63008;53.112;8.896;2022-11-20T03:27:05;101170.09;;;1.87;83.16
5126;BME280;63008;53.112;8.896;2022-11-20T03:29:06;101161.13;;;1.86;82.67
5126;BME280;63008;53.112;8.896;2022-11-20T03:31:10;101161.69;;;1.88;82.92
5126;BME280;63008;53.112;8.896;2022-11-20T03:33:11;101158.44;;;1.81;82.83
5126;BME280;63008;53.112;8.896;2022-11-20T03:35:12;101162.75;;;1.77;83.23
5126;BME280;63008;53.112;8.896;2022-11-20T03:37:14;101157.06;;;1.74;83.17
5126;BME280;63008;53.112;8.896;2022-11-20T03:39:14;101161.66;;;1.78;82.96
5126;BME280;63008;53.112;8.896;2022-11-20T03:41:23;101153.56;;;1.83;82.97
5126;BME280;63008;53.112;8.896;2022-11-20T03:43:24;101150.06;;;1.88;82.80
5126;BME280;63008;53.112;8.896;2022-11-20T03:45:25;101152.47;;;1.84;83.21
5126;BME280;63008;53.112;8.896;2022-11-20T03:47:26;101155.19;;;1.89;82.44
5126;BME280;63008;53.112;8.896;2022-11-20T03:49:27;101153.31;;;1.90;82.55
5126;BME280;63008;53.112;8.896;2022-11-20T03:51:32;101147.34;;;1.88;82.60
5126;BME280;63008;53.112;8.896;2022-11-20T03:53:34;101142.19;;;1.81;82.44
5126;BME280;63008;53.112;8.896;2022-11-20T03:55:35;101144.38;;;1.84;82.89
5126;BME280;63008;53.112;8.896;2022-11-20T03:57:36;101140.56;;;1.85;83.32
5126;BME280;63008;53.112;8.896;2022-11-20T03:59:37;101134.09;;;1.86;82.87
5126;BME280;63008;53.112;8.896;2022-11-20T04:01:38;101135.72;;;1.87;83.36
5126;BME280;63008;53.112;8.896;2022-11-20T04:03:40;101135.19;;;2.05;83.43
5126;BME280;63008;53.112;8.896;2022-11-20T04:05:41;101135.50;;;2.04;82.67
5126;BME280;63008;53.112;8.896;2022-11-20T04:07:42;101139.53;;;2.06;82.29
5126;BME280;63008;53.112;8.896;2022-11-20T04:09:43;101135.50;;;2.04;82.68
5126;BME280;63008;53.112;8.896;2022-11-20T04:11:44;101136.00;;;1.96;82.45
5126;BME280;63008;53.112;8.896;2022-11-20T04:13:48;101134.88;;;1.82;82.75
5126;BME280;63008;53.112;8.896;2022-11-20T04:15:49;101130.84;;;1.84;83.03
5126;BME280;63008;53.112;8.896;2022-11-20T04:17:50;101123.81;;;1.93;83.44
5126;BME280;63008;53.112;8.896;2022-11-20T04:19:51;101139.00;;;1.94;83.11
5126;BME280;63008;53.112;8.896;2022-11-20T04:21:52;101134.38;;;2.00;82.94
5126;BME280;63008;53.112;8.896;2022-11-20T04:23:53;101136.28;;;1.99;82.56
5126;BME280;63008;53.112;8.896;2022-11-20T04:26:00;101125.19;;;1.96;82.45
5126;BME280;63008;53.112;8.896;2022-11-20T04:28:02;101121.69;;;2.05;82.57
5126;BME280;63008;53.112;8.896;2022-11-20T04:30:03;101121.97;;;2.09;82.39
5126;BME280;63008;53.112;8.896;2022-11-20T04:32:04;101116.53;;;2.14;82.07
5126;BME280;63008;53.112;8.896;2022-11-20T04:34:06;101127.38;;;2.14;81.78
5126;BME280;63008;53.112;8.896;2022-11-20T04:36:11;101111.13;;;2.14;81.79
5126;BME280;63008;53.112;8.896;2022-11-20T04:38:12;101115.47;;;2.15;81.48
5126;BME280;63008;53.112;8.896;2022-11-20T04:40:13;101106.53;;;2.14;81.38
5126;BME280;63008;53.112;8.896;2022-11-20T04:42:14;101102.19;;;2.08;81.34
5126;BME280;63008;53.112;8.896;2022-11-20T04:44:30;101108.72;;;2.12;81.05
5126;BME280;63008;53.112;8.896;2022-11-20T04:46:36;101126.28;;;2.05;81.57
5126;BME280;63008;53.112;8.896;2022-11-20T04:48:37;101123.31;;;1.96;81.87
5126;BME280;63008;53.112;8.896;2022-11-20T04:50:40;101120.59;;;2.01;81.50
5126;BME280;63008;53.112;8.896;2022-11-20T04:52:41;101130.88;;;2.09;81.37
5126;BME280;63008;53.112;8.896;2022-11-20T04:54:42;101129.00;;;2.10;80.74
5126;BME280;63008;53.112;8.896;2022-11-20T04:56:43;101120.88;;;2.05;80.53
5126;BME280;63008;53.112;8.896;2022-11-20T04:58:44;101117.09;;;2.06;80.61
5126;BME280;63008;53.112;8.896;2022-11-20T05:00:45;101118.97;;;2.00;80.32
5126;BME280;63008;53.112;8.896;2022-11-20T05:02:46;101124.94;;;1.97;80.36
5126;BME280;63008;53.112;8.896;2022-11-20T05:04:47;101117.34;;;1.99;80.37
5126;BME280;63008;53.112;8.896;2022-11-20T05:06:49;101116.25;;;2.00;80.31
5126;BME280;63008;53.112;8.896;2022-11-20T05:08:50;101114.38;;;2.06;79.77
5126;BME280;63008;53.112;8.896;2022-11-20T05:10:51;101118.72;;;2.07;80.04
5126;BME280;63008;53.112;8.896;2022-11-20T05:12:53;101117.63;;;2.03;80.03
5126;BME280;63008;53.112;8.896;2022-11-20T05:14:54;101113.56;;;2.05;79.44
5126;BME280;63008;53.112;8.896;2022-11-20T05:16:55;101115.44;;;2.00;79.60
5126;BME280;63008;53.112;8.896;2022-11-20T05:18:55;101115.44;;;2.00;79.89
5126;BME280;63008;53.112;8.896;2022-11-20T05:20:57;101112.19;;;1.98;80.07
5126;BME280;63008;53.112;8.896;2022-11-20T05:22:59;101112.44;;;1.91;80.02
5126;BME280;63008;53.112;8.896;2022-11-20T05:25:00;101106.53;;;1.94;80.26
5126;BME280;63008;53.112;8.896;2022-11-20T05:27:01;101105.44;;;1.95;80.57
5126;BME280;63008;53.112;8.896;2022-11-20T05:29:02;101103.28;;;2.02;80.60
5126;BME280;63008;53.112;8.896;2022-11-20T05:31:13;101113.84;;;2.09;80.41
5126;BME280;63008;53.112;8.896;2022-11-20T05:33:14;101103.81;;;2.04;80.37
5126;BME280;63008;53.112;8.896;2022-11-20T05:35:15;101101.66;;;2.01;80.39
5126;BME280;63008;53.112;8.896;2022-11-20T05:37:16;101098.66;;;1.93;81.00
5126;BME280;63008;53.112;8.896;2022-11-20T05:39:17;101094.06;;;2.03;80.54
5126;BME280;63008;53.112;8.896;2022-11-20T05:41:20;101104.38;;;2.11;80.41
5126;BME280;63008;53.112;8.896;2022-11-20T05:43:21;101102.22;;;2.13;80.26
5126;BME280;63008;53.112;8.896;2022-11-20T05:45:22;101105.97;;;2.02;80.43
5126;BME280;63008;53.112;8.896;2022-11-20T05:47:23;101098.41;;;2.04;80.65
5126;BME280;63008;53.112;8.896;2022-11-20T05:49:24;101104.06;;;1.98;80.62
5126;BME280;63008;53.112;8.896;2022-11-20T05:51:26;101104.06;;;1.98;81.05
5126;BME280;63008;53.112;8.896;2022-11-20T05:53:27;101104.63;;;1.95;81.03
5126;BME280;63008;53.112;8.896;2022-11-20T05:55:28;101109.22;;;1.99;80.89
5126;BME280;63008;53.112;8.896;2022-11-20T05:57:31;101105.44;;;2.05;80.68
5126;BME280;63008;53.112;8.896;2022-11-20T05:59:31;101105.97;;;2.02;80.48
5126;BME280;63008;53.112;8.896;2022-11-20T06:01:32;101092.16;;;1.99;81.38
5126;BME280;63008;53.112;8.896;2022-11-20T06:03:34;101090.56;;;2.13;81.65
5126;BME280;63008;53.112;8.896;2022-11-20T06:05:35;101099.50;;;2.13;80.72
5126;BME280;63008;53.112;8.896;2022-11-20T06:07:36;101098.97;;;2.11;80.60
5126;BME280;63008;53.112;8.896;2022-11-20T06:09:37;101088.41;;;2.15;80.82
5126;BME280;63008;53.112;8.896;2022-11-20T06:11:38;101095.19;;;2.12;80.58
5126;BME280;63008;53.112;8.896;2022-11-20T06:13:39;101091.09;;;2.10;80.82
5126;BME280;63008;53.112;8.896;2022-11-20T06:15:40;101087.59;;;2.14;80.79
5126;BME280;63008;53.112;8.896;2022-11-20T06:17:41;101085.97;;;2.13;80.84
5126;BME280;63008;53.112;8.896;2022-11-20T06:19:42;101088.94;;;2.12;80.90
5126;BME280;63008;53.112;8.896;2022-11-20T06:21:43;101084.34;;;2.12;81.01
5126;BME280;63008;53.112;8.896;2022-11-20T06:23:44;101075.41;;;2.17;81.35
5126;BME280;63008;53.112;8.896;2022-11-20T06:25:46;101073.50;;;2.27;81.11
5126;BME280;63008;53.112;8.896;2022-11-20T06:27:46;101066.50;;;2.31;80.44
5126;BME280;63008;53.112;8.896;2022-11-20T06:29:47;101070.78;;;2.27;80.70
5126;BME280;63008;53.112;8.896;2022-11-20T06:31:48;101077.56;;;2.20;80.85
5126;BME280;63008;53.112;8.896;2022-11-20T06:33:50;101075.97;;;2.24;80.75
5126;BME280;63008;53.112;8.896;2022-11-20T06:35:51;101084.06;;;2.04;81.24
5126;BME280;63008;53.112;8.896;2022-11-20T06:37:52;101078.38;;;1.95;81.82
5126;BME280;63008;53.112;8.896;2022-11-20T06:39:53;101075.13;;;2.03;82.39
5126;BME280;63008;53.112;8.896;2022-11-20T06:41:54;101081.09;;;2.05;82.29
5126;BME280;63008;53.112;8.896;2022-11-20T06:43:55;101068.91;;;1.98;82.18
5126;BME280;63008;53.112;8.896;2022-11-20T06:45:58;101066.47;;;2.01;82.48
5126;BME280;63008;53.112;8.896;2022-11-20T06:47:59;101063.22;;;2.09;82.40
5126;BME280;63008;53.112;8.896;2022-11-20T06:50:00;101063.78;;;2.11;82.23
5126;BME280;63008;53.112;8.896;2022-11-20T06:52:01;101059.16;;;2.12;81.64
5126;BME280;63008;53.112;8.896;2022-11-20T06:54:02;101060.00;;;2.17;81.77
5126;BME280;63008;53.112;8.896;2022-11-20T06:56:04;101049.44;;;2.21;81.25
5126;BME280;63008;53.112;8.896;2022-11-20T06:58:05;101054.56;;;2.22;81.38
5126;BME280;63008;53.112;8.896;2022-11-20T07:00:06;101055.94;;;2.25;81.28
5126;BME280;63008;53.112;8.896;2022-11-20T07:02:11;101045.91;;;2.25;81.03
5126;BME280;63008;53.112;8.896;2022-11-20T07:04:12;101047.00;;;2.29;81.12
5126;BME280;63008;53.112;8.896;2022-11-20T07:06:13;101034.00;;;2.21;81.24
5126;BME280;63008;53.112;8.896;2022-11-20T07:08:14;101039.41;;;2.21;80.93
5126;BME280;63008;53.112;8.896;2022-11-20T07:10:15;101044.53;;;2.18;80.95
5126;BME280;63008;53.112;8.896;2022-11-20T07:12:17;101060.00;;;2.17;81.37
5126;BME280;63008;53.112;8.896;2022-11-20T07:14:18;101071.88;;;2.01;82.05
5126;BME280;63008;53.112;8.896;2022-11-20T07:16:18;101064.56;;;1.97;81.99
5126;BME280;63008;53.112;8.896;2022-11-20T07:18:19;101060.78;;;1.93;81.98
5126;BME280;63008;53.112;8.896;2022-11-20T07:20:20;101075.13;;;1.98;81.88
5126;BME280;63008;53.112;8.896;2022-11-20T07:22:21;101069.19;;;2.01;81.49
5126;BME280;63008;53.112;8.896;2022-11-20T07:24:22;101069.44;;;1.95;81.87
5126;BME280;63008;53.112;8.896;2022-11-20T07:26:23;101075.69;;;1.95;82.01
5126;BME280;63008;53.112;8.896;2022-11-20T07:28:24;101071.09;;;2.06;82.31
5126;BME280;63008;53.112;8.896;2022-11-20T07:30:29;101063.78;;;2.11;81.35
5126;BME280;63008;53.112;8.896;2022-11-20T07:32:30;101057.28;;;2.12;81.45
5126;BME280;63008;53.112;8.896;2022-11-20T07:34:31;101056.19;;;2.08;81.13
5126;BME280;63008;53.112;8.896;2022-11-20T07:36:32;101058.06;;;2.18;80.69
5126;BME280;63008;53.112;8.896;2022-11-20T07:38:33;101052.94;;;2.21;80.88
5126;BME280;63008;53.112;8.896;2022-11-20T07:40:34;101050.25;;;2.21;80.56
5126;BME280;63008;53.112;8.896;2022-11-20T07:42:35;101053.19;;;2.20;80.50
5126;BME280;63008;53.112;8.896;2022-11-20T07:44:36;101051.59;;;2.19;80.57
5126;BME280;63008;53.112;8.896;2022-11-20T07:46:37;101056.47;;;2.12;80.27
5126;BME280;63008;53.112;8.896;2022-11-20T07:48:39;101051.88;;;2.12;80.45
5126;BME280;63008;53.112;8.896;2022-11-20T07:50:40;101057.81;;;2.09;80.54
5126;BME280;63008;53.112;8.896;2022-11-20T07:52:41;101057.00;;;2.09;80.59
5126;BME280;63008;53.112;8.896;2022-11-20T07:54:42;101064.59;;;2.07;80.61
5126;BME280;63008;53.112;8.896;2022-11-20T07:56:43;101057.28;;;2.12;80.72
5126;BME280;63008;53.112;8.896;2022-11-20T07:58:44;101057.81;;;2.19;80.68
5126;BME280;63008;53.112;8.896;2022-11-20T08:00:45;101058.06;;;2.18;81.02
5126;BME280;63008;53.112;8.896;2022-11-20T08:02:46;101061.91;;;2.22;80.58
5126;BME280;63008;53.112;8.896;2022-11-20T08:04:48;101064.31;;;2.23;80.08
5126;BME280;63008;53.112;8.896;2022-11-20T08:06:49;101066.72;;;2.20;79.93
5126;BME280;63008;53.112;8.896;2022-11-20T08:08:50;101059.44;;;2.15;80.12
5126;BME280;63008;53.112;8.896;2022-11-20T08:10:51;101066.47;;;2.21;79.45
5126;BME280;63008;53.112;8.896;2022-11-20T08:12:52;101065.94;;;2.09;80.11
5126;BME280;63008;53.112;8.896;2022-11-20T08:15:11;101074.59;;;2.16;79.94
5126;BME280;63008;53.112;8.896;2022-11-20T08:17:13;101075.16;;;2.18;79.42
5126;BME280;63008;53.112;8.896;2022-11-20T08:19:15;101080.25;;;2.00;80.34
5126;BME280;63008;53.112;8.896;2022-11-20T08:21:16;101075.97;;;2.04;80.05
5126;BME280;63008;53.112;8.896;2022-11-20T08:23:17;101076.50;;;2.11;79.80
5126;BME280;63008;53.112;8.896;2022-11-20T08:25:18;101069.19;;;2.21;79.67
5126;BME280;63008;53.112;8.896;2022-11-20T08:27:19;101077.03;;;2.23;79.50
5126;BME280;63008;53.112;8.896;2022-11-20T08:29:20;101069.72;;;2.33;79.28
5126;BME280;63008;53.112;8.896;2022-11-20T08:31:22;101068.91;;;2.43;78.98
5126;BME280;63008;53.112;8.896;2022-11-20T08:33:23;101071.88;;;2.46;78.86
5126;BME280;63008;53.112;8.896;2022-11-20T08:35:24;101069.72;;;2.53;78.43
5126;BME280;63008;53.112;8.896;2022-11-20T08:37:25;101070.50;;;2.49;78.04
5126;BME280;63008;53.112;8.896;2022-11-20T08:39:26;101073.47;;;2.62;78.81
5126;BME280;63008;53.112;8.896;2022-11-20T08:41:27;101074.53;;;2.76;77.77
5126;BME280;63008;53.112;8.896;2022-11-20T08:43:27;101070.50;;;2.74;77.20
5126;BME280;63008;53.112;8.896;2022-11-20T08:45:29;101072.31;;;2.93;76.72
5126;BME280;63008;53.112;8.896;2022-11-20T08:47:29;101071.50;;;2.88;77.13
5126;BME280;63008;53.112;8.896;2022-11-20T08:49:30;101076.69;;;2.84;76.87
5126;BME280;63008;53.112;8.896;2022-11-20T08:51:32;101070.44;;;2.94;76.35
5126;BME280;63008;53.112;8.896;2022-11-20T08:53:33;101072.84;;;3.00;76.41
5126;BME280;63008;53.112;8.896;2022-11-20T08:55:33;101069.59;;;2.93;76.57
5126;BME280;63008;53.112;8.896;2022-11-20T08:57:37;101065.00;;;2.94;76.86
5126;BME280;63008;53.112;8.896;2022-11-20T08:59:40;101068.28;;;2.91;75.96
5126;BME280;63008;53.112;8.896;2022-11-20T09:01:41;101067.72;;;2.89;76.78
5126;BME280;63008;53.112;8.896;2022-11-20T09:03:42;101075.03;;;2.93;76.04
5126;BME280;63008;53.112;8.896;2022-11-20T09:05:43;101072.63;;;2.82;75.67
5126;BME280;63008;53.112;8.896;2022-11-20T09:07:44;101070.72;;;2.77;75.81
5126;BME280;63008;53.112;8.896;2022-11-20T09:09:45;101069.94;;;2.77;76.33
5126;BME280;63008;53.112;8.896;2022-11-20T09:11:46;101073.44;;;2.87;76.10
5126;BME280;63008;53.112;8.896;2022-11-20T09:13:47;101075.88;;;2.84;75.70
5126;BME280;63008;53.112;8.896;2022-11-20T09:15:56;101075.34;;;2.72;76.18
5126;BME280;63008;53.112;8.896;2022-11-20T09:18:02;101072.94;;;2.70;76.30
5126;BME280;63008;53.112;8.896;2022-11-20T09:20:03;101076.19;;;2.67;76.93
5126;BME280;63008;53.112;8.896;2022-11-20T09:22:05;101079.69;;;2.73;76.17
5126;BME280;63008;53.112;8.896;2022-11-20T09:24:06;101078.59;;;2.79;76.56
5126;BME280;63008;53.112;8.896;2022-11-20T09:26:12;101083.22;;;2.73;75.89
5126;BME280;63008;53.112;8.896;2022-11-20T09:28:13;101080.25;;;2.65;76.15
5126;BME280;63008;53.112;8.896;2022-11-20T09:30:15;101076.16;;;2.72;76.54
5126;BME280;63008;53.112;8.896;2022-11-20T09:32:16;101075.88;;;2.79;76.36
5126;BME280;63008;53.112;8.896;2022-11-20T09:34:17;101074.50;;;2.81;76.27
5126;BME280;63008;53.112;8.896;2022-11-20T09:36:18;101071.53;;;2.73;76.32
5126;BME280;63008;53.112;8.896;2022-11-20T09:38:19;101066.69;;;2.65;76.42
5126;BME280;63008;53.112;8.896;2022-11-20T09:40:26;101062.34;;;2.69;76.91
5126;BME280;63008;53.112;8.896;2022-11-20T09:42:43;101069.44;;;2.45;78.07
5126;BME280;63008;53.112;8.896;2022-11-20T09:44:56;101071.63;;;2.43;78.76
5126;BME280;63008;53.112;8.896;2022-11-20T09:47:11;101068.09;;;2.47;79.12
5126;BME280;63008;53.112;8.896;2022-11-20T09:54:16;101069.16;;;2.56;78.08
5126;BME280;63008;53.112;8.896;2022-11-20T09:56:19;101067.00;;;2.53;78.97
5126;BME280;63008;53.112;8.896;2022-11-20T09:58:31;101061.84;;;2.52;78.54
5126;BME280;63008;53.112;8.896;2022-11-20T10:00:36;101058.31;;;2.56;78.37
5126;BME280;63008;53.112;8.896;2022-11-20T10:02:48;101057.25;;;2.57;78.81
5126;BME280;63008;53.112;8.896;2022-11-20T10:07:13;101052.91;;;2.56;78.92
5126;BME280;63008;53.112;8.896;2022-11-20T10:09:28;101052.63;;;2.53;79.18
5126;BME280;63008;53.112;8.896;2022-11-20T10:23:43;101055.38;;;2.28;81.74
5126;BME280;63008;53.112;8.896;2022-11-20T10:30:09;101042.13;;;2.31;81.99
5126;BME280;63008;53.112;8.896;2022-11-20T10:32:15;101047.00;;;2.34;81.94
5126;BME280;63008;53.112;8.896;2022-11-20T10:34:23;101044.81;;;2.21;82.31
5126;BME280;63008;53.112;8.896;2022-11-20T10:36:30;101038.31;;;2.22;82.16
5126;BME280;63008;53.112;8.896;2022-11-20T10:38:42;101034.28;;;2.15;82.40
5126;BME280;63008;53.112;8.896;2022-11-20T10:40:52;101039.69;;;2.05;82.92
5126;BME280;63008;53.112;8.896;2022-11-20T10:42:56;101042.41;;;2.10;83.08
5126;BME280;63008;53.112;8.896;2022-11-20T10:47:31;101027.78;;;2.11;83.71
5126;BME280;63008;53.112;8.896;2022-11-20T10:49:33;101033.47;;;2.14;85.23
5126;BME280;63008;53.112;8.896;2022-11-20T10:51:39;101030.75;;;2.09;84.64
5126;BME280;63008;53.112;8.896;2022-11-20T10:54:16;101039.44;;;2.11;84.85
5126;BME280;63008;53.112;8.896;2022-11-20T10:56:25;101028.31;;;1.98;84.89
5126;BME280;63008;53.112;8.896;2022-11-20T10:58:41;101040.50;;;1.90;85.35
5126;BME280;63008;53.112;8.896;2022-11-20T11:00:46;101027.22;;;1.99;85.34
5126;BME280;63008;53.112;8.896;2022-11-20T11:04:51;101028.03;;;2.09;85.17
5126;BME280;63008;53.112;8.896;2022-11-20T11:06:57;101028.84;;;2.15;85.45
5126;BME280;63008;53.112;8.896;2022-11-20T11:09:02;101017.78;;;2.11;85.70
5126;BME280;63008;53.112;8.896;2022-11-20T11:11:23;101020.19;;;2.18;85.28
5126;BME280;63008;53.112;8.896;2022-11-20T11:13:26;101021.81;;;2.14;85.48
5126;BME280;63008;53.112;8.896;2022-11-20T11:15:38;101022.38;;;2.21;85.06
5126;BME280;63008;53.112;8.896;2022-11-20T11:17:46;101027.22;;;2.34;84.87
5126;BME280;63008;53.112;8.896;2022-11-20T11:20:19;101027.75;;;2.31;84.56
5126;BME280;63008;53.112;8.896;2022-11-20T11:22:21;101021.50;;;2.45;84.19
5126;BME280;63008;53.112;8.896;2022-11-20T11:24:27;101025.03;;;2.46;83.90
5126;BME280;63008;53.112;8.896;2022-11-20T11:26:29;101014.44;;;2.59;83.24
5126;BME280;63008;53.112;8.896;2022-11-20T11:28:30;101020.66;;;2.75;83.67
5126;BME280;63008;53.112;8.896;2022-11-20T11:30:43;101018.41;;;3.45;80.77
5126;BME280;63008;53.112;8.896;2022-11-20T11:32:44;101013.22;;;3.92;79.52